sensor_id;sensor_type;location;lat;lon;timestamp;temperature;humidity
69589;SHT31;56792;50.644;17.984;2023-03-01T00:01:31;-3.30;71.42
69589;SHT31;56792;50.644;17.984;2023-03-01T00:04:03;-3.34;71.58
69589;SHT31;56792;50.644;17.984;2023-03-01T00:06:35;-3.38;71.67
69589;SHT31;56792;50.644;17.984;2023-03-01T00:09:08;-3.42;71.74
69589;SHT31;56792;50.644;17.984;2023-03-01T00:11:41;-3.48;72.05
69589;SHT31;56792;50.644;17.984;2023-03-01T00:14:13;-3.52;71.99
69589;SHT31;56792;50.644;17.984;2023-03-01T00:16:46;-3.54;72.02
69589;SHT31;56792;50.644;17.984;2023-03-01T00:19:19;-3.57;72.08
69589;SHT31;56792;50.644;17.984;2023-03-01T00:21:51;-3.57;72.14
69589;SHT31;56792;50.644;17.984;2023-03-01T00:24:23;-3.58;72.01
69589;SHT31;56792;50.644;17.984;2023-03-01T00:26:56;-3.59;72.00
69589;SHT31;56792;50.644;17.984;2023-03-01T00:29:28;-3.58;72.10
69589;SHT31;56792;50.644;17.984;2023-03-01T00:32:00;-3.59;72.14
69589;SHT31;56792;50.644;17.984;2023-03-01T00:37:05;-3.59;72.08
69589;SHT31;56792;50.644;17.984;2023-03-01T00:39:37;-3.59;71.97
69589;SHT31;56792;50.644;17.984;2023-03-01T00:42:09;-3.60;72.24
69589;SHT31;56792;50.644;17.984;2023-03-01T00:44:44;-3.63;72.30
69589;SHT31;56792;50.644;17.984;2023-03-01T00:47:16;-3.64;72.43
69589;SHT31;56792;50.644;17.984;2023-03-01T00:49:48;-3.66;72.69
69589;SHT31;56792;50.644;17.984;2023-03-01T00:52:21;-3.66;72.77
69589;SHT31;56792;50.644;17.984;2023-03-01T00:54:53;-3.66;72.63
69589;SHT31;56792;50.644;17.984;2023-03-01T00:57:26;-3.66;72.65
69589;SHT31;56792;50.644;17.984;2023-03-01T00:59:58;-3.68;72.52
69589;SHT31;56792;50.644;17.984;2023-03-01T01:02:31;-3.70;72.51
69589;SHT31;56792;50.644;17.984;2023-03-01T01:05:04;-3.72;72.52
69589;SHT31;56792;50.644;17.984;2023-03-01T01:07:38;-3.75;72.59
69589;SHT31;56792;50.644;17.984;2023-03-01T01:10:11;-3.77;72.50
69589;SHT31;56792;50.644;17.984;2023-03-01T01:12:44;-3.84;72.53
69589;SHT31;56792;50.644;17.984;2023-03-01T01:15:17;-3.90;72.66
69589;SHT31;56792;50.644;17.984;2023-03-01T01:17:49;-3.91;72.78
69589;SHT31;56792;50.644;17.984;2023-03-01T01:20:22;-3.91;72.86
69589;SHT31;56792;50.644;17.984;2023-03-01T01:22:54;-3.94;72.76
69589;SHT31;56792;50.644;17.984;2023-03-01T01:25:26;-3.97;72.97
69589;SHT31;56792;50.644;17.984;2023-03-01T01:28:02;-3.95;73.20
69589;SHT31;56792;50.644;17.984;2023-03-01T01:30:34;-3.93;73.23
69589;SHT31;56792;50.644;17.984;2023-03-01T01:33:07;-3.90;73.39
69589;SHT31;56792;50.644;17.984;2023-03-01T01:35:39;-3.88;73.36
69589;SHT31;56792;50.644;17.984;2023-03-01T01:38:13;-3.87;73.41
69589;SHT31;56792;50.644;17.984;2023-03-01T01:40:45;-3.86;73.19
69589;SHT31;56792;50.644;17.984;2023-03-01T01:43:20;-3.87;72.97
69589;SHT31;56792;50.644;17.984;2023-03-01T01:45:56;-3.87;72.75
69589;SHT31;56792;50.644;17.984;2023-03-01T01:48:32;-3.89;72.58
69589;SHT31;56792;50.644;17.984;2023-03-01T01:51:11;-3.90;72.58
69589;SHT31;56792;50.644;17.984;2023-03-01T01:53:53;-3.92;72.87
69589;SHT31;56792;50.644;17.984;2023-03-01T01:56:30;-3.94;72.95
69589;SHT31;56792;50.644;17.984;2023-03-01T01:59:05;-3.96;73.05
69589;SHT31;56792;50.644;17.984;2023-03-01T02:01:38;-3.99;73.06
69589;SHT31;56792;50.644;17.984;2023-03-01T02:04:10;-4.00;73.07
69589;SHT31;56792;50.644;17.984;2023-03-01T02:06:44;-4.04;73.01
69589;SHT31;56792;50.644;17.984;2023-03-01T02:09:23;-4.10;72.83
69589;SHT31;56792;50.644;17.984;2023-03-01T02:11:58;-4.12;72.76
69589;SHT31;56792;50.644;17.984;2023-03-01T02:14:32;-4.15;72.69
69589;SHT31;56792;50.644;17.984;2023-03-01T02:17:04;-4.20;72.98
69589;SHT31;56792;50.644;17.984;2023-03-01T02:19:49;-4.22;73.28
69589;SHT31;56792;50.644;17.984;2023-03-01T02:22:40;-4.24;73.30
69589;SHT31;56792;50.644;17.984;2023-03-01T02:25:25;-4.27;73.35
69589;SHT31;56792;50.644;17.984;2023-03-01T02:31:08;-4.28;73.55
69589;SHT31;56792;50.644;17.984;2023-03-01T02:34:03;-4.28;73.87
69589;SHT31;56792;50.644;17.984;2023-03-01T02:36:38;-4.26;73.97
69589;SHT31;56792;50.644;17.984;2023-03-01T02:39:17;-4.27;73.82
69589;SHT31;56792;50.644;17.984;2023-03-01T02:41:54;-4.28;73.90
69589;SHT31;56792;50.644;17.984;2023-03-01T02:44:27;-4.25;73.94
69589;SHT31;56792;50.644;17.984;2023-03-01T02:47:01;-4.23;73.76
69589;SHT31;56792;50.644;17.984;2023-03-01T02:49:35;-4.23;73.69
69589;SHT31;56792;50.644;17.984;2023-03-01T02:55:20;-4.24;73.49
69589;SHT31;56792;50.644;17.984;2023-03-01T02:57:52;-4.26;73.48
69589;SHT31;56792;50.644;17.984;2023-03-01T03:00:28;-4.29;73.61
69589;SHT31;56792;50.644;17.984;2023-03-01T03:03:07;-4.32;73.50
69589;SHT31;56792;50.644;17.984;2023-03-01T03:05:41;-4.34;73.76
69589;SHT31;56792;50.644;17.984;2023-03-01T03:08:14;-4.37;73.98
69589;SHT31;56792;50.644;17.984;2023-03-01T03:10:51;-4.39;74.14
69589;SHT31;56792;50.644;17.984;2023-03-01T03:13:23;-4.42;74.13
69589;SHT31;56792;50.644;17.984;2023-03-01T03:15:56;-4.44;74.04
69589;SHT31;56792;50.644;17.984;2023-03-01T03:18:30;-4.48;73.94
69589;SHT31;56792;50.644;17.984;2023-03-01T03:21:02;-4.51;74.20
69589;SHT31;56792;50.644;17.984;2023-03-01T03:23:38;-4.52;74.30
69589;SHT31;56792;50.644;17.984;2023-03-01T03:26:10;-4.52;74.20
69589;SHT31;56792;50.644;17.984;2023-03-01T03:28:43;-4.53;74.19
69589;SHT31;56792;50.644;17.984;2023-03-01T03:31:15;-4.56;74.53
69589;SHT31;56792;50.644;17.984;2023-03-01T03:33:48;-4.57;74.54
69589;SHT31;56792;50.644;17.984;2023-03-01T03:36:21;-4.58;74.34
69589;SHT31;56792;50.644;17.984;2023-03-01T03:38:54;-4.60;74.29
69589;SHT31;56792;50.644;17.984;2023-03-01T03:41:26;-4.61;74.41
69589;SHT31;56792;50.644;17.984;2023-03-01T03:43:59;-4.57;74.45
69589;SHT31;56792;50.644;17.984;2023-03-01T03:46:31;-4.54;74.18
69589;SHT31;56792;50.644;17.984;2023-03-01T03:49:03;-4.53;74.10
69589;SHT31;56792;50.644;17.984;2023-03-01T03:51:35;-4.53;74.11
69589;SHT31;56792;50.644;17.984;2023-03-01T03:54:08;-4.52;74.22
69589;SHT31;56792;50.644;17.984;2023-03-01T03:56:40;-4.51;74.37
69589;SHT31;56792;50.644;17.984;2023-03-01T03:59:12;-4.51;74.28
69589;SHT31;56792;50.644;17.984;2023-03-01T04:01:44;-4.52;74.20
69589;SHT31;56792;50.644;17.984;2023-03-01T04:04:17;-4.56;74.42
69589;SHT31;56792;50.644;17.984;2023-03-01T04:06:49;-4.58;74.44
69589;SHT31;56792;50.644;17.984;2023-03-01T04:09:21;-4.60;74.43
69589;SHT31;56792;50.644;17.984;2023-03-01T04:11:54;-4.63;74.47
69589;SHT31;56792;50.644;17.984;2023-03-01T04:14:26;-4.63;74.39
69589;SHT31;56792;50.644;17.984;2023-03-01T04:16:59;-4.66;74.09
69589;SHT31;56792;50.644;17.984;2023-03-01T04:19:32;-4.72;74.04
69589;SHT31;56792;50.644;17.984;2023-03-01T04:22:04;-4.75;74.28
69589;SHT31;56792;50.644;17.984;2023-03-01T04:24:38;-4.78;74.64
69589;SHT31;56792;50.644;17.984;2023-03-01T04:27:10;-4.80;74.82
69589;SHT31;56792;50.644;17.984;2023-03-01T04:29:43;-4.82;74.72
69589;SHT31;56792;50.644;17.984;2023-03-01T04:32:15;-4.82;74.73
69589;SHT31;56792;50.644;17.984;2023-03-01T04:34:47;-4.81;74.61
69589;SHT31;56792;50.644;17.984;2023-03-01T04:37:20;-4.82;74.28
69589;SHT31;56792;50.644;17.984;2023-03-01T04:39:53;-4.83;74.43
69589;SHT31;56792;50.644;17.984;2023-03-01T04:42:25;-4.82;74.73
69589;SHT31;56792;50.644;17.984;2023-03-01T04:44:58;-4.81;74.82
69589;SHT31;56792;50.644;17.984;2023-03-01T04:47:30;-4.79;74.81
69589;SHT31;56792;50.644;17.984;2023-03-01T04:50:06;-4.76;74.68
69589;SHT31;56792;50.644;17.984;2023-03-01T04:52:40;-4.75;74.42
69589;SHT31;56792;50.644;17.984;2023-03-01T04:55:13;-4.75;74.30
69589;SHT31;56792;50.644;17.984;2023-03-01T04:57:46;-4.78;74.08
69589;SHT31;56792;50.644;17.984;2023-03-01T05:00:19;-4.83;74.25
69589;SHT31;56792;50.644;17.984;2023-03-01T05:02:52;-4.84;74.46
69589;SHT31;56792;50.644;17.984;2023-03-01T05:05:28;-4.85;74.38
69589;SHT31;56792;50.644;17.984;2023-03-01T05:08:04;-4.83;74.38
69589;SHT31;56792;50.644;17.984;2023-03-01T05:10:44;-4.84;74.24
69589;SHT31;56792;50.644;17.984;2023-03-01T05:13:19;-4.89;74.18
69589;SHT31;56792;50.644;17.984;2023-03-01T05:15:55;-4.94;74.02
69589;SHT31;56792;50.644;17.984;2023-03-01T05:18:30;-4.97;74.22
69589;SHT31;56792;50.644;17.984;2023-03-01T05:21:05;-5.00;74.56
69589;SHT31;56792;50.644;17.984;2023-03-01T05:23:39;-5.03;74.49
69589;SHT31;56792;50.644;17.984;2023-03-01T05:26:12;-5.07;74.48
69589;SHT31;56792;50.644;17.984;2023-03-01T05:28:48;-5.08;74.59
69589;SHT31;56792;50.644;17.984;2023-03-01T05:31:23;-5.09;74.97
69589;SHT31;56792;50.644;17.984;2023-03-01T05:33:57;-5.10;74.73
69589;SHT31;56792;50.644;17.984;2023-03-01T05:36:29;-5.12;74.71
69589;SHT31;56792;50.644;17.984;2023-03-01T05:39:02;-5.10;74.63
69589;SHT31;56792;50.644;17.984;2023-03-01T05:41:34;-5.06;74.71
69589;SHT31;56792;50.644;17.984;2023-03-01T05:44:07;-5.02;74.90
69589;SHT31;56792;50.644;17.984;2023-03-01T05:46:40;-4.99;74.79
69589;SHT31;56792;50.644;17.984;2023-03-01T05:49:12;-4.95;74.65
69589;SHT31;56792;50.644;17.984;2023-03-01T05:51:47;-4.92;74.42
69589;SHT31;56792;50.644;17.984;2023-03-01T05:54:22;-4.91;74.40
69589;SHT31;56792;50.644;17.984;2023-03-01T05:56:55;-4.86;74.38
69589;SHT31;56792;50.644;17.984;2023-03-01T05:59:27;-4.82;74.56
69589;SHT31;56792;50.644;17.984;2023-03-01T06:01:59;-4.75;74.67
69589;SHT31;56792;50.644;17.984;2023-03-01T06:04:31;-4.69;74.74
69589;SHT31;56792;50.644;17.984;2023-03-01T06:07:04;-4.64;74.61
69589;SHT31;56792;50.644;17.984;2023-03-01T06:09:36;-4.60;74.67
69589;SHT31;56792;50.644;17.984;2023-03-01T06:12:08;-4.56;74.69
69589;SHT31;56792;50.644;17.984;2023-03-01T06:14:41;-4.51;74.75
69589;SHT31;56792;50.644;17.984;2023-03-01T06:17:13;-4.45;74.90
69589;SHT31;56792;50.644;17.984;2023-03-01T06:19:45;-4.39;75.04
69589;SHT31;56792;50.644;17.984;2023-03-01T06:22:19;-4.32;75.20
69589;SHT31;56792;50.644;17.984;2023-03-01T06:24:51;-4.24;75.31
69589;SHT31;56792;50.644;17.984;2023-03-01T06:27:25;-4.14;75.22
69589;SHT31;56792;50.644;17.984;2023-03-01T06:29:57;-4.06;75.26
69589;SHT31;56792;50.644;17.984;2023-03-01T06:32:30;-3.95;75.24
69589;SHT31;56792;50.644;17.984;2023-03-01T06:35:03;-3.86;75.04
69589;SHT31;56792;50.644;17.984;2023-03-01T06:37:37;-3.75;75.00
69589;SHT31;56792;50.644;17.984;2023-03-01T06:40:10;-3.66;74.95
69589;SHT31;56792;50.644;17.984;2023-03-01T06:42:47;-3.54;74.86
69589;SHT31;56792;50.644;17.984;2023-03-01T06:45:20;-3.31;74.75
69589;SHT31;56792;50.644;17.984;2023-03-01T06:47:57;-3.03;74.42
69589;SHT31;56792;50.644;17.984;2023-03-01T06:50:34;-2.73;74.20
69589;SHT31;56792;50.644;17.984;2023-03-01T06:53:07;-2.41;73.94
69589;SHT31;56792;50.644;17.984;2023-03-01T06:55:39;-2.07;73.60
69589;SHT31;56792;50.644;17.984;2023-03-01T06:58:12;-1.73;73.26
69589;SHT31;56792;50.644;17.984;2023-03-01T07:00:44;-1.40;72.58
69589;SHT31;56792;50.644;17.984;2023-03-01T07:03:17;-1.10;72.15
69589;SHT31;56792;50.644;17.984;2023-03-01T07:05:50;-0.78;71.84
69589;SHT31;56792;50.644;17.984;2023-03-01T07:08:23;-0.46;71.23
69589;SHT31;56792;50.644;17.984;2023-03-01T07:10:56;-0.16;70.72
69589;SHT31;56792;50.644;17.984;2023-03-01T07:13:31;0.09;69.86
69589;SHT31;56792;50.644;17.984;2023-03-01T07:16:05;0.30;69.17
69589;SHT31;56792;50.644;17.984;2023-03-01T07:18:39;0.50;68.79
69589;SHT31;56792;50.644;17.984;2023-03-01T07:21:12;0.75;68.41
69589;SHT31;56792;50.644;17.984;2023-03-01T07:23:46;0.98;67.76
69589;SHT31;56792;50.644;17.984;2023-03-01T07:26:19;1.11;67.13
69589;SHT31;56792;50.644;17.984;2023-03-01T07:28:52;1.27;67.07
69589;SHT31;56792;50.644;17.984;2023-03-01T07:31:28;1.46;66.86
69589;SHT31;56792;50.644;17.984;2023-03-01T07:34:00;1.67;66.47
69589;SHT31;56792;50.644;17.984;2023-03-01T07:36:33;1.97;66.51
69589;SHT31;56792;50.644;17.984;2023-03-01T07:39:06;2.25;66.26
69589;SHT31;56792;50.644;17.984;2023-03-01T07:41:39;2.52;65.07
69589;SHT31;56792;50.644;17.984;2023-03-01T07:44:12;2.82;64.98
69589;SHT31;56792;50.644;17.984;2023-03-01T07:46:44;3.02;64.49
69589;SHT31;56792;50.644;17.984;2023-03-01T07:49:23;3.25;64.10
69589;SHT31;56792;50.644;17.984;2023-03-01T07:52:03;3.60;63.01
69589;SHT31;56792;50.644;17.984;2023-03-01T07:54:37;3.86;62.75
69589;SHT31;56792;50.644;17.984;2023-03-01T07:57:12;4.05;62.19
69589;SHT31;56792;50.644;17.984;2023-03-01T07:59:44;4.24;61.60
69589;SHT31;56792;50.644;17.984;2023-03-01T08:02:17;4.48;60.93
69589;SHT31;56792;50.644;17.984;2023-03-01T08:04:50;4.71;59.67
69589;SHT31;56792;50.644;17.984;2023-03-01T08:07:22;4.95;59.56
69589;SHT31;56792;50.644;17.984;2023-03-01T08:09:54;5.14;58.73
69589;SHT31;56792;50.644;17.984;2023-03-01T08:12:27;5.28;57.87
69589;SHT31;56792;50.644;17.984;2023-03-01T08:14:59;5.46;57.61
69589;SHT31;56792;50.644;17.984;2023-03-01T08:17:32;5.69;57.19
69589;SHT31;56792;50.644;17.984;2023-03-01T08:20:05;5.87;57.08
69589;SHT31;56792;50.644;17.984;2023-03-01T08:22:41;6.05;56.59
69589;SHT31;56792;50.644;17.984;2023-03-01T08:25:14;6.22;55.79
69589;SHT31;56792;50.644;17.984;2023-03-01T08:27:47;6.35;54.57
69589;SHT31;56792;50.644;17.984;2023-03-01T08:30:19;6.53;54.25
69589;SHT31;56792;50.644;17.984;2023-03-01T08:32:52;6.70;53.40
69589;SHT31;56792;50.644;17.984;2023-03-01T08:35:25;6.93;54.03
69589;SHT31;56792;50.644;17.984;2023-03-01T08:37:58;7.20;54.77
69589;SHT31;56792;50.644;17.984;2023-03-01T08:40:30;7.51;53.92
69589;SHT31;56792;50.644;17.984;2023-03-01T08:43:04;7.68;52.24
69589;SHT31;56792;50.644;17.984;2023-03-01T08:45:36;7.83;51.65
69589;SHT31;56792;50.644;17.984;2023-03-01T08:48:08;8.03;51.53
69589;SHT31;56792;50.644;17.984;2023-03-01T08:50:41;8.22;50.90
69589;SHT31;56792;50.644;17.984;2023-03-01T08:53:13;8.31;49.63
69589;SHT31;56792;50.644;17.984;2023-03-01T08:55:46;8.35;48.83
69589;SHT31;56792;50.644;17.984;2023-03-01T08:58:31;8.49;48.92
69589;SHT31;56792;50.644;17.984;2023-03-01T09:01:10;8.77;48.71
69589;SHT31;56792;50.644;17.984;2023-03-01T09:03:46;9.25;48.10
69589;SHT31;56792;50.644;17.984;2023-03-01T09:06:18;9.78;46.00
69589;SHT31;56792;50.644;17.984;2023-03-01T09:08:51;10.37;45.84
69589;SHT31;56792;50.644;17.984;2023-03-01T09:11:23;11.02;44.85
69589;SHT31;56792;50.644;17.984;2023-03-01T09:13:56;11.94;43.43
69589;SHT31;56792;50.644;17.984;2023-03-01T09:16:28;13.14;41.90
69589;SHT31;56792;50.644;17.984;2023-03-01T09:19:02;14.39;39.57
69589;SHT31;56792;50.644;17.984;2023-03-01T09:21:35;15.25;37.61
69589;SHT31;56792;50.644;17.984;2023-03-01T09:24:08;16.13;36.12
69589;SHT31;56792;50.644;17.984;2023-03-01T09:26:47;17.07;35.13
69589;SHT31;56792;50.644;17.984;2023-03-01T09:29:21;17.89;33.31
69589;SHT31;56792;50.644;17.984;2023-03-01T09:31:57;18.80;32.28
69589;SHT31;56792;50.644;17.984;2023-03-01T09:34:35;19.74;31.46
69589;SHT31;56792;50.644;17.984;2023-03-01T09:37:21;20.65;29.48
69589;SHT31;56792;50.644;17.984;2023-03-01T09:39:54;21.08;28.23
69589;SHT31;56792;50.644;17.984;2023-03-01T09:42:27;21.69;28.22
69589;SHT31;56792;50.644;17.984;2023-03-01T09:45:02;22.50;26.90
69589;SHT31;56792;50.644;17.984;2023-03-01T09:47:48;23.03;25.14
69589;SHT31;56792;50.644;17.984;2023-03-01T09:50:21;23.54;25.11
69589;SHT31;56792;50.644;17.984;2023-03-01T09:53:01;24.20;25.15
69589;SHT31;56792;50.644;17.984;2023-03-01T09:55:39;24.86;24.32
69589;SHT31;56792;50.644;17.984;2023-03-01T09:58:29;25.58;23.78
69589;SHT31;56792;50.644;17.984;2023-03-01T10:04:12;26.80;22.07
69589;SHT31;56792;50.644;17.984;2023-03-01T10:07:15;26.89;21.29
69589;SHT31;56792;50.644;17.984;2023-03-01T10:10:00;27.19;21.31
69589;SHT31;56792;50.644;17.984;2023-03-01T10:12:38;27.49;19.69
69589;SHT31;56792;50.644;17.984;2023-03-01T10:15:14;27.75;20.09
69589;SHT31;56792;50.644;17.984;2023-03-01T10:17:51;28.24;19.37
69589;SHT31;56792;50.644;17.984;2023-03-01T10:20:33;28.68;18.89
69589;SHT31;56792;50.644;17.984;2023-03-01T10:23:17;28.81;18.46
69589;SHT31;56792;50.644;17.984;2023-03-01T10:25:55;28.83;18.87
69589;SHT31;56792;50.644;17.984;2023-03-01T10:28:43;28.99;18.52
69589;SHT31;56792;50.644;17.984;2023-03-01T10:31:30;28.95;18.04
69589;SHT31;56792;50.644;17.984;2023-03-01T10:34:12;29.18;18.17
69589;SHT31;56792;50.644;17.984;2023-03-01T10:36:49;29.57;18.22
69589;SHT31;56792;50.644;17.984;2023-03-01T10:39:25;29.91;17.78
69589;SHT31;56792;50.644;17.984;2023-03-01T10:41:59;30.01;16.94
69589;SHT31;56792;50.644;17.984;2023-03-01T10:44:38;30.22;16.88
69589;SHT31;56792;50.644;17.984;2023-03-01T10:47:18;30.42;16.36
69589;SHT31;56792;50.644;17.984;2023-03-01T10:49:54;30.44;16.64
69589;SHT31;56792;50.644;17.984;2023-03-01T10:52:31;30.60;16.44
69589;SHT31;56792;50.644;17.984;2023-03-01T10:55:21;30.35;16.34
69589;SHT31;56792;50.644;17.984;2023-03-01T10:58:16;30.14;16.10
69589;SHT31;56792;50.644;17.984;2023-03-01T11:00:51;30.24;16.21
69589;SHT31;56792;50.644;17.984;2023-03-01T11:03:26;30.43;15.96
69589;SHT31;56792;50.644;17.984;2023-03-01T11:06:05;30.48;15.62
69589;SHT31;56792;50.644;17.984;2023-03-01T11:08:51;30.42;15.69
69589;SHT31;56792;50.644;17.984;2023-03-01T11:11:33;29.97;15.15
69589;SHT31;56792;50.644;17.984;2023-03-01T11:14:12;29.72;15.91
69589;SHT31;56792;50.644;17.984;2023-03-01T11:16:47;29.91;16.41
69589;SHT31;56792;50.644;17.984;2023-03-01T11:19:30;30.02;16.38
69589;SHT31;56792;50.644;17.984;2023-03-01T11:22:03;30.03;15.91
69589;SHT31;56792;50.644;17.984;2023-03-01T11:24:40;30.15;15.82
69589;SHT31;56792;50.644;17.984;2023-03-01T11:27:18;30.15;15.39
69589;SHT31;56792;50.644;17.984;2023-03-01T11:29:54;30.32;15.85
69589;SHT31;56792;50.644;17.984;2023-03-01T11:32:34;30.59;16.00
69589;SHT31;56792;50.644;17.984;2023-03-01T11:35:13;30.79;16.02
69589;SHT31;56792;50.644;17.984;2023-03-01T11:37:54;30.87;15.55
69589;SHT31;56792;50.644;17.984;2023-03-01T11:40:47;30.73;15.38
69589;SHT31;56792;50.644;17.984;2023-03-01T11:43:35;30.54;15.63
69589;SHT31;56792;50.644;17.984;2023-03-01T11:46:39;30.55;15.56
69589;SHT31;56792;50.644;17.984;2023-03-01T11:49:39;30.77;15.12
69589;SHT31;56792;50.644;17.984;2023-03-01T11:52:44;31.07;15.18
69589;SHT31;56792;50.644;17.984;2023-03-01T11:55:40;31.31;15.01
69589;SHT31;56792;50.644;17.984;2023-03-01T11:58:34;31.45;14.99
69589;SHT31;56792;50.644;17.984;2023-03-01T12:01:27;31.46;15.31
69589;SHT31;56792;50.644;17.984;2023-03-01T12:04:26;31.30;15.22
69589;SHT31;56792;50.644;17.984;2023-03-01T12:07:26;31.58;15.10
69589;SHT31;56792;50.644;17.984;2023-03-01T12:10:23;31.93;15.00
69589;SHT31;56792;50.644;17.984;2023-03-01T12:13:06;31.95;15.01
69589;SHT31;56792;50.644;17.984;2023-03-01T12:16:05;31.88;14.99
69589;SHT31;56792;50.644;17.984;2023-03-01T12:18:53;31.71;14.63
69589;SHT31;56792;50.644;17.984;2023-03-01T12:21:53;32.06;14.54
69589;SHT31;56792;50.644;17.984;2023-03-01T12:24:54;32.31;14.39
69589;SHT31;56792;50.644;17.984;2023-03-01T12:28:01;32.45;14.34
69589;SHT31;56792;50.644;17.984;2023-03-01T12:31:11;32.51;14.07
69589;SHT31;56792;50.644;17.984;2023-03-01T12:34:24;32.48;14.20
69589;SHT31;56792;50.644;17.984;2023-03-01T12:37:25;32.78;14.28
69589;SHT31;56792;50.644;17.984;2023-03-01T12:40:23;32.74;13.92
69589;SHT31;56792;50.644;17.984;2023-03-01T12:43:28;32.65;14.17
69589;SHT31;56792;50.644;17.984;2023-03-01T12:46:21;32.09;13.93
69589;SHT31;56792;50.644;17.984;2023-03-01T12:49:13;32.09;14.45
69589;SHT31;56792;50.644;17.984;2023-03-01T12:51:54;32.33;14.37
69589;SHT31;56792;50.644;17.984;2023-03-01T12:54:36;32.24;14.25
69589;SHT31;56792;50.644;17.984;2023-03-01T12:57:12;32.31;14.23
69589;SHT31;56792;50.644;17.984;2023-03-01T12:59:59;32.18;14.15
69589;SHT31;56792;50.644;17.984;2023-03-01T13:02:48;32.17;14.07
69589;SHT31;56792;50.644;17.984;2023-03-01T13:05:31;32.13;14.04
69589;SHT31;56792;50.644;17.984;2023-03-01T13:08:16;32.29;13.89
69589;SHT31;56792;50.644;17.984;2023-03-01T13:10:58;32.42;14.09
69589;SHT31;56792;50.644;17.984;2023-03-01T13:13:33;32.47;13.88
69589;SHT31;56792;50.644;17.984;2023-03-01T13:19:10;32.12;13.79
69589;SHT31;56792;50.644;17.984;2023-03-01T13:21:47;32.02;13.66
69589;SHT31;56792;50.644;17.984;2023-03-01T13:24:25;32.03;13.69
69589;SHT31;56792;50.644;17.984;2023-03-01T13:27:10;32.07;13.63
69589;SHT31;56792;50.644;17.984;2023-03-01T13:29:56;32.02;13.49
69589;SHT31;56792;50.644;17.984;2023-03-01T13:32:32;32.21;13.40
69589;SHT31;56792;50.644;17.984;2023-03-01T13:35:15;32.35;13.33
69589;SHT31;56792;50.644;17.984;2023-03-01T13:44:25;31.88;12.77
69589;SHT31;56792;50.644;17.984;2023-03-01T13:47:06;31.75;12.78
69589;SHT31;56792;50.644;17.984;2023-03-01T13:49:47;31.52;12.97
69589;SHT31;56792;50.644;17.984;2023-03-01T13:55:16;31.76;13.18
69589;SHT31;56792;50.644;17.984;2023-03-01T13:57:55;31.46;13.14
69589;SHT31;56792;50.644;17.984;2023-03-01T14:00:32;30.23;13.19
69589;SHT31;56792;50.644;17.984;2023-03-01T14:03:10;28.44;13.45
69589;SHT31;56792;50.644;17.984;2023-03-01T14:05:58;26.42;14.09
69589;SHT31;56792;50.644;17.984;2023-03-01T14:08:38;25.29;14.74
69589;SHT31;56792;50.644;17.984;2023-03-01T14:14:29;26.05;14.84
69589;SHT31;56792;50.644;17.984;2023-03-01T14:17:14;26.05;15.08
69589;SHT31;56792;50.644;17.984;2023-03-01T14:20:18;25.92;14.95
69589;SHT31;56792;50.644;17.984;2023-03-01T14:22:55;25.81;15.22
69589;SHT31;56792;50.644;17.984;2023-03-01T14:25:37;25.79;15.21
69589;SHT31;56792;50.644;17.984;2023-03-01T14:28:18;25.04;15.46
69589;SHT31;56792;50.644;17.984;2023-03-01T14:30:56;24.00;15.80
69589;SHT31;56792;50.644;17.984;2023-03-01T14:33:30;22.56;16.28
69589;SHT31;56792;50.644;17.984;2023-03-01T14:36:08;21.35;16.78
69589;SHT31;56792;50.644;17.984;2023-03-01T14:38:42;20.18;17.81
69589;SHT31;56792;50.644;17.984;2023-03-01T14:41:17;19.20;18.58
69589;SHT31;56792;50.644;17.984;2023-03-01T14:43:54;18.47;19.14
69589;SHT31;56792;50.644;17.984;2023-03-01T14:46:30;17.69;19.96
69589;SHT31;56792;50.644;17.984;2023-03-01T14:49:06;17.12;20.58
69589;SHT31;56792;50.644;17.984;2023-03-01T14:51:51;16.56;21.52
69589;SHT31;56792;50.644;17.984;2023-03-01T14:54:29;16.04;21.61
69589;SHT31;56792;50.644;17.984;2023-03-01T14:57:13;15.61;22.41
69589;SHT31;56792;50.644;17.984;2023-03-01T14:59:50;15.25;22.94
69589;SHT31;56792;50.644;17.984;2023-03-01T15:02:27;14.93;23.33
69589;SHT31;56792;50.644;17.984;2023-03-01T15:05:03;14.59;23.68
69589;SHT31;56792;50.644;17.984;2023-03-01T15:07:40;14.25;23.88
69589;SHT31;56792;50.644;17.984;2023-03-01T15:10:18;13.92;24.16
69589;SHT31;56792;50.644;17.984;2023-03-01T15:12:54;13.58;24.48
69589;SHT31;56792;50.644;17.984;2023-03-01T15:15:42;13.25;24.98
69589;SHT31;56792;50.644;17.984;2023-03-01T15:18:18;13.07;25.58
69589;SHT31;56792;50.644;17.984;2023-03-01T15:21:02;12.88;26.18
69589;SHT31;56792;50.644;17.984;2023-03-01T15:23:47;12.58;26.62
69589;SHT31;56792;50.644;17.984;2023-03-01T15:26:27;12.30;27.05
69589;SHT31;56792;50.644;17.984;2023-03-01T15:29:03;12.09;27.69
69589;SHT31;56792;50.644;17.984;2023-03-01T15:31:54;11.88;28.45
69589;SHT31;56792;50.644;17.984;2023-03-01T15:34:31;11.59;28.92
69589;SHT31;56792;50.644;17.984;2023-03-01T15:37:06;11.37;29.34
69589;SHT31;56792;50.644;17.984;2023-03-01T15:40:22;11.11;29.95
69589;SHT31;56792;50.644;17.984;2023-03-01T15:43:00;10.87;30.47
69589;SHT31;56792;50.644;17.984;2023-03-01T15:45:34;10.60;31.13
69589;SHT31;56792;50.644;17.984;2023-03-01T15:48:14;10.36;31.62
69589;SHT31;56792;50.644;17.984;2023-03-01T15:50:55;10.13;31.95
69589;SHT31;56792;50.644;17.984;2023-03-01T15:53:30;9.88;32.27
69589;SHT31;56792;50.644;17.984;2023-03-01T15:56:03;9.62;32.74
69589;SHT31;56792;50.644;17.984;2023-03-01T15:58:36;9.39;33.07
69589;SHT31;56792;50.644;17.984;2023-03-01T16:01:11;9.14;33.54
69589;SHT31;56792;50.644;17.984;2023-03-01T16:03:47;8.89;33.95
69589;SHT31;56792;50.644;17.984;2023-03-01T16:06:21;8.67;34.43
69589;SHT31;56792;50.644;17.984;2023-03-01T16:08:55;8.46;34.85
69589;SHT31;56792;50.644;17.984;2023-03-01T16:11:30;8.23;35.34
69589;SHT31;56792;50.644;17.984;2023-03-01T16:14:05;8.02;35.74
69589;SHT31;56792;50.644;17.984;2023-03-01T16:16:41;7.81;36.15
69589;SHT31;56792;50.644;17.984;2023-03-01T16:19:16;7.63;36.64
69589;SHT31;56792;50.644;17.984;2023-03-01T16:21:51;7.43;37.16
69589;SHT31;56792;50.644;17.984;2023-03-01T16:24:25;7.25;37.59
69589;SHT31;56792;50.644;17.984;2023-03-01T16:26:59;7.03;37.92
69589;SHT31;56792;50.644;17.984;2023-03-01T16:29:32;6.81;38.36
69589;SHT31;56792;50.644;17.984;2023-03-01T16:32:06;6.62;38.86
69589;SHT31;56792;50.644;17.984;2023-03-01T16:34:39;6.46;39.22
69589;SHT31;56792;50.644;17.984;2023-03-01T16:37:15;6.31;39.51
69589;SHT31;56792;50.644;17.984;2023-03-01T16:39:49;6.13;39.86
69589;SHT31;56792;50.644;17.984;2023-03-01T16:42:23;5.98;40.27
69589;SHT31;56792;50.644;17.984;2023-03-01T16:45:01;5.87;40.61
69589;SHT31;56792;50.644;17.984;2023-03-01T16:47:34;5.73;40.87